createdAt,value
2023-03-29T00:01:10.271Z,5.80
2023-03-29T00:03:39.762Z,6.53
2023-03-29T00:06:10.348Z,12.98
2023-03-29T00:08:39.188Z,7.00
2023-03-29T00:11:07.729Z,8.18
2023-03-29T00:13:36.295Z,7.00
2023-03-29T00:16:04.822Z,9.30
2023-03-29T00:18:33.255Z,6.32
2023-03-29T00:21:02.306Z,10.10
2023-03-29T00:23:32.503Z,9.77
2023-03-29T00:26:05.872Z,6.15
2023-03-29T00:28:35.810Z,7.63
2023-03-29T00:31:09.738Z,11.57
2023-03-29T00:33:38.648Z,8.23
2023-03-29T00:36:08.894Z,8.23
2023-03-29T00:38:39.087Z,7.70
2023-03-29T00:41:10.729Z,7.55
2023-03-29T00:43:59.629Z,8.52
2023-03-29T00:46:30.055Z,6.78
2023-03-29T00:49:02.171Z,8.40
2023-03-29T00:51:34.355Z,7.82
2023-03-29T00:54:09.452Z,6.45
2023-03-29T00:56:41.721Z,9.13
2023-03-29T00:59:15.776Z,12.52
2023-03-29T01:01:50.610Z,11.30
2023-03-29T01:04:25.228Z,16.20
2023-03-29T01:06:58.494Z,16.83
2023-03-29T01:09:30.542Z,15.20
2023-03-29T01:12:03.037Z,9.15
2023-03-29T01:14:38.557Z,7.90
2023-03-29T01:17:07.898Z,12.25
2023-03-29T01:19:41.801Z,26.17
2023-03-29T01:22:22.644Z,29.23
2023-03-29T01:25:04.310Z,31.58
2023-03-29T01:27:48.832Z,28.88
2023-03-29T01:30:20.792Z,15.35
2023-03-29T01:32:55.669Z,11.48
2023-03-29T01:35:32.696Z,17.20
2023-03-29T01:38:07.414Z,16.88
2023-03-29T01:40:36.119Z,16.92
2023-03-29T01:43:17.680Z,15.85
2023-03-29T01:45:51.433Z,8.85
2023-03-29T01:48:26.978Z,10.10
2023-03-29T01:51:00.348Z,11.32
2023-03-29T01:53:34.132Z,12.38
2023-03-29T01:56:09.412Z,16.45
2023-03-29T01:58:43.606Z,11.82
2023-03-29T02:01:17.760Z,12.65
2023-03-29T02:03:50.920Z,11.20
2023-03-29T02:06:23.870Z,8.38
2023-03-29T02:08:54.532Z,7.60
2023-03-29T02:11:24.624Z,7.53
2023-03-29T02:13:54.707Z,10.60
2023-03-29T02:16:23.307Z,7.88
2023-03-29T02:18:56.409Z,10.68
2023-03-29T02:21:29.184Z,9.52
2023-03-29T02:24:02.421Z,9.93
2023-03-29T02:26:31.012Z,12.45
2023-03-29T02:29:00.990Z,8.38
2023-03-29T02:31:32.769Z,9.27
2023-03-29T02:34:08.967Z,11.75
2023-03-29T02:36:42.110Z,14.13
2023-03-29T02:39:15.718Z,9.80
2023-03-29T02:41:45.926Z,10.40
2023-03-29T02:44:19.740Z,15.45
2023-03-29T02:46:51.232Z,8.70
2023-03-29T02:49:20.065Z,10.43
2023-03-29T02:51:52.795Z,14.32
2023-03-29T02:54:26.021Z,8.38
2023-03-29T02:57:00.409Z,12.80
2023-03-29T02:59:31.415Z,15.00
2023-03-29T03:02:00.145Z,11.15
2023-03-29T03:04:29.793Z,9.88
2023-03-29T03:06:58.230Z,12.18
2023-03-29T03:09:27.545Z,9.00
2023-03-29T03:11:56.284Z,9.15
2023-03-29T03:14:28.332Z,10.68
2023-03-29T03:17:03.933Z,11.95
2023-03-29T03:19:33.938Z,11.13
2023-03-29T03:22:02.426Z,9.68
2023-03-29T03:24:32.699Z,12.18
2023-03-29T03:27:02.477Z,7.10
2023-03-29T03:29:31.040Z,7.88
2023-03-29T03:32:14.380Z,12.95
2023-03-29T03:35:01.788Z,7.45
2023-03-29T03:37:31.369Z,8.98
2023-03-29T03:40:00.179Z,7.15
2023-03-29T03:42:31.746Z,7.82
2023-03-29T03:45:00.608Z,10.10
2023-03-29T03:47:40.012Z,12.07
2023-03-29T03:50:35.146Z,12.05
2023-03-29T03:53:04.105Z,9.07
2023-03-29T03:55:54.365Z,11.45
2023-03-29T03:58:28.708Z,8.75
2023-03-29T04:00:59.291Z,8.20
2023-03-29T04:03:41.163Z,7.72
2023-03-29T04:06:13.983Z,6.60
2023-03-29T04:09:04.881Z,13.77
2023-03-29T04:11:38.518Z,22.83
2023-03-29T04:14:08.312Z,11.63
2023-03-29T04:16:57.270Z,19.38
2023-03-29T04:19:48.640Z,19.58
2023-03-29T04:22:17.223Z,20.15
2023-03-29T04:24:47.175Z,18.13
2023-03-29T04:30:14.621Z,14.07
2023-03-29T04:33:01.734Z,11.57
2023-03-29T04:35:33.598Z,9.18
2023-03-29T04:38:04.546Z,10.60
2023-03-29T04:40:34.629Z,10.55
2023-03-29T04:43:30.250Z,14.50
2023-03-29T04:46:11.323Z,12.13
2023-03-29T04:49:05.962Z,14.55
2023-03-29T04:51:50.799Z,9.13
2023-03-29T04:54:22.896Z,8.77
2023-03-29T04:57:13.203Z,9.13
2023-03-29T04:59:56.958Z,14.98
2023-03-29T05:02:45.684Z,7.03
2023-03-29T05:05:15.562Z,10.15
2023-03-29T05:07:47.201Z,8.93
2023-03-29T05:10:19.277Z,8.45
2023-03-29T05:12:54.193Z,8.88
2023-03-29T05:15:24.262Z,9.10
2023-03-29T05:17:53.128Z,4.60
2023-03-29T05:20:23.132Z,8.65
2023-03-29T05:23:10.853Z,6.82
2023-03-29T05:26:02.751Z,11.90
2023-03-29T05:28:31.465Z,10.55
2023-03-29T05:31:04.892Z,7.22
2023-03-29T05:33:38.285Z,11.77
2023-03-29T05:36:11.232Z,14.18
2023-03-29T05:38:46.790Z,13.65
2023-03-29T05:41:18.163Z,30.52
2023-03-29T05:44:19.490Z,15.57
2023-03-29T05:46:53.423Z,9.70
2023-03-29T05:49:27.510Z,16.95
2023-03-29T05:52:10.582Z,15.80
2023-03-29T05:54:41.596Z,15.68
2023-03-29T05:57:13.935Z,22.10
2023-03-29T05:59:44.152Z,24.50
2023-03-29T06:02:15.603Z,36.60
2023-03-29T06:04:49.431Z,14.88
2023-03-29T06:07:27.000Z,15.98
2023-03-29T06:10:18.095Z,20.85
2023-03-29T06:12:51.122Z,15.00
2023-03-29T06:15:24.305Z,21.30
2023-03-29T06:17:57.434Z,13.55
2023-03-29T06:20:27.445Z,11.60
2023-03-29T06:23:03.359Z,10.32
2023-03-29T06:25:34.539Z,7.50
2023-03-29T06:28:04.819Z,8.80
2023-03-29T06:30:35.388Z,36.42
2023-03-29T06:33:04.290Z,15.18
2023-03-29T06:35:52.262Z,19.73
2023-03-29T06:38:28.198Z,18.75
2023-03-29T06:41:05.555Z,25.25
2023-03-29T06:43:52.541Z,17.75
2023-03-29T06:46:24.523Z,8.60
2023-03-29T06:51:33.816Z,10.90
2023-03-29T06:54:04.248Z,10.20
2023-03-29T06:56:34.890Z,10.35
2023-03-29T06:59:10.650Z,16.38
2023-03-29T07:01:57.160Z,7.00
2023-03-29T07:04:47.864Z,36.75
2023-03-29T07:07:53.421Z,18.30
2023-03-29T07:10:33.512Z,11.63
2023-03-29T07:13:35.702Z,24.75
2023-03-29T07:16:12.549Z,9.15
2023-03-29T07:18:49.748Z,12.93
2023-03-29T07:21:33.677Z,9.40
2023-03-29T07:24:04.791Z,14.70
2023-03-29T07:26:33.520Z,9.32
2023-03-29T07:29:03.342Z,12.40
2023-03-29T07:31:33.152Z,15.20
2023-03-29T07:34:21.579Z,12.77
2023-03-29T07:36:50.416Z,12.30
2023-03-29T07:39:18.988Z,11.23
2023-03-29T07:42:03.677Z,7.93
2023-03-29T07:44:33.918Z,7.20
2023-03-29T07:47:04.586Z,8.32
2023-03-29T07:49:34.094Z,7.38
2023-03-29T07:52:03.868Z,12.73
2023-03-29T07:54:33.217Z,13.55
2023-03-29T07:57:16.840Z,8.95
2023-03-29T07:59:54.132Z,10.50
2023-03-29T08:02:29.315Z,10.57
2023-03-29T08:05:03.447Z,17.33
2023-03-29T08:07:32.267Z,8.82
2023-03-29T08:10:21.360Z,7.32
2023-03-29T08:13:01.066Z,9.55
2023-03-29T08:15:42.223Z,8.93
2023-03-29T08:18:20.699Z,8.35
2023-03-29T08:20:50.314Z,9.90
2023-03-29T08:23:18.855Z,10.82
2023-03-29T08:26:14.306Z,8.60
2023-03-29T08:28:43.286Z,9.05
2023-03-29T08:31:13.933Z,11.10
2023-03-29T08:36:57.413Z,9.75
2023-03-29T08:39:33.983Z,7.38
2023-03-29T08:42:56.857Z,8.80
2023-03-29T08:45:39.068Z,11.27
2023-03-29T08:48:19.890Z,6.15
2023-03-29T08:50:54.384Z,5.18
2023-03-29T08:53:28.737Z,6.28
2023-03-29T08:56:25.064Z,8.70
2023-03-29T08:59:22.324Z,6.78
2023-03-29T09:01:55.106Z,8.27
2023-03-29T09:04:30.939Z,9.80
2023-03-29T09:07:10.420Z,9.57
2023-03-29T09:09:44.332Z,6.30
2023-03-29T09:12:35.814Z,6.63
2023-03-29T09:15:12.949Z,8.05
2023-03-29T09:17:56.810Z,6.30
2023-03-29T09:20:40.042Z,9.23
2023-03-29T09:23:21.213Z,7.68
2023-03-29T09:26:19.944Z,5.05
2023-03-29T09:29:19.283Z,6.30
2023-03-29T09:31:49.752Z,6.63
2023-03-29T09:34:24.124Z,7.28
2023-03-29T09:37:05.179Z,10.20
2023-03-29T09:39:33.776Z,5.53
2023-03-29T09:42:12.013Z,7.70
2023-03-29T09:44:47.016Z,7.10
2023-03-29T09:47:26.600Z,9.77
2023-03-29T09:50:09.889Z,8.63
2023-03-29T09:52:44.152Z,8.77
2023-03-29T09:55:23.802Z,7.30
2023-03-29T09:58:04.224Z,6.75
2023-03-29T10:00:38.020Z,9.00
2023-03-29T10:03:08.063Z,11.98
2023-03-29T10:05:51.761Z,13.35
2023-03-29T10:08:25.024Z,8.85
2023-03-29T10:10:54.470Z,10.05
2023-03-29T10:13:30.790Z,8.65
2023-03-29T10:16:02.773Z,7.95
2023-03-29T10:18:32.778Z,6.72
2023-03-29T10:21:03.072Z,7.55
2023-03-29T10:23:34.345Z,11.00
2023-03-29T10:26:05.478Z,10.50
2023-03-29T10:28:36.461Z,8.05
2023-03-29T10:31:08.289Z,7.50
2023-03-29T10:33:37.861Z,7.10
2023-03-29T10:36:09.764Z,11.82
2023-03-29T10:38:39.850Z,10.52
2023-03-29T10:41:12.725Z,7.60
2023-03-29T10:43:45.530Z,5.47
2023-03-29T10:46:21.441Z,7.63
2023-03-29T10:48:51.601Z,7.53
2023-03-29T10:51:20.783Z,12.30
2023-03-29T10:53:50.901Z,6.45
2023-03-29T10:56:40.298Z,7.40
2023-03-29T10:59:25.630Z,8.05
2023-03-29T11:02:09.498Z,7.63
2023-03-29T11:04:44.128Z,10.13
2023-03-29T11:07:28.242Z,5.88
2023-03-29T11:10:07.213Z,14.02
2023-03-29T11:12:42.052Z,6.72
2023-03-29T11:15:24.531Z,5.72
2023-03-29T11:18:03.407Z,13.45
2023-03-29T11:20:42.746Z,6.70
2023-03-29T11:23:25.670Z,6.50
2023-03-29T11:26:07.988Z,5.90
2023-03-29T11:28:43.834Z,6.50
2023-03-29T11:31:21.625Z,7.82
2023-03-29T11:33:59.388Z,8.35
2023-03-29T11:36:39.030Z,6.28
2023-03-29T11:39:17.379Z,8.27
2023-03-29T11:41:54.090Z,7.97
2023-03-29T11:44:25.898Z,8.73
2023-03-29T11:47:00.571Z,4.78
2023-03-29T11:49:33.577Z,9.60
2023-03-29T11:52:07.566Z,8.45
2023-03-29T11:54:42.462Z,6.43
2023-03-29T11:57:19.625Z,14.38
2023-03-29T11:59:59.066Z,8.30
2023-03-29T12:02:34.262Z,6.70
2023-03-29T12:05:11.465Z,8.18
2023-03-29T12:07:46.946Z,8.30
2023-03-29T12:10:21.940Z,8.60
2023-03-29T12:12:58.762Z,6.95
2023-03-29T12:15:31.806Z,6.90
2023-03-29T12:18:07.223Z,7.35
2023-03-29T12:20:40.143Z,7.78
2023-03-29T12:23:16.085Z,9.00
2023-03-29T12:25:53.708Z,7.00
2023-03-29T12:28:51.115Z,6.45
2023-03-29T12:31:26.862Z,9.60
2023-03-29T12:34:14.952Z,6.57
2023-03-29T12:37:25.797Z,5.60
2023-03-29T12:40:41.928Z,7.43
2023-03-29T12:43:33.551Z,8.98
2023-03-29T12:46:24.390Z,6.10
2023-03-29T12:48:57.483Z,6.07
2023-03-29T12:51:31.915Z,7.63
2023-03-29T12:54:08.616Z,6.80
2023-03-29T12:56:41.897Z,6.63
2023-03-29T12:59:27.890Z,6.03
2023-03-29T13:02:04.453Z,7.55
2023-03-29T13:04:39.872Z,5.85
2023-03-29T13:07:15.899Z,11.68
2023-03-29T13:09:53.009Z,11.95
2023-03-29T13:12:27.231Z,6.47
2023-03-29T13:15:01.131Z,11.80
2023-03-29T13:17:38.154Z,8.65
2023-03-29T13:20:20.051Z,9.60
2023-03-29T13:23:01.754Z,7.60
2023-03-29T13:25:47.771Z,6.97
2023-03-29T13:28:24.465Z,7.80
2023-03-29T13:31:01.176Z,9.63
2023-03-29T13:33:54.794Z,7.80
2023-03-29T13:36:35.021Z,6.60
2023-03-29T13:39:08.008Z,7.93
2023-03-29T13:41:52.160Z,8.45
2023-03-29T13:44:41.432Z,8.13
2023-03-29T13:47:29.763Z,6.85
2023-03-29T13:50:02.181Z,8.50
2023-03-29T13:52:36.760Z,10.80
2023-03-29T13:55:10.538Z,9.32
2023-03-29T13:57:42.671Z,9.02
2023-03-29T14:00:18.272Z,9.43
2023-03-29T14:02:52.972Z,10.13
2023-03-29T14:05:27.391Z,10.77
2023-03-29T14:07:57.039Z,9.35
2023-03-29T14:10:28.424Z,7.63
2023-03-29T14:12:57.608Z,8.55
2023-03-29T14:15:29.375Z,8.48
2023-03-29T14:18:00.714Z,7.82
2023-03-29T14:20:32.039Z,8.02
2023-03-29T14:23:00.714Z,9.75
2023-03-29T14:25:31.198Z,6.97
2023-03-29T14:27:59.662Z,8.98
2023-03-29T14:30:31.965Z,12.52
2023-03-29T14:33:05.310Z,10.13
2023-03-29T14:35:34.756Z,9.52
2023-03-29T14:38:04.451Z,8.23
2023-03-29T14:40:34.618Z,10.55
2023-03-29T14:43:10.061Z,9.77
2023-03-29T14:45:39.033Z,8.80
2023-03-29T14:48:13.386Z,8.00
2023-03-29T14:50:42.738Z,11.27
2023-03-29T14:53:19.480Z,7.07
2023-03-29T14:55:51.827Z,8.70
2023-03-29T14:58:23.779Z,7.68
2023-03-29T15:00:53.160Z,8.80
2023-03-29T15:03:26.513Z,8.75
2023-03-29T15:05:58.951Z,8.32
2023-03-29T15:08:33.778Z,6.53
2023-03-29T15:11:03.054Z,9.10
2023-03-29T15:13:32.101Z,7.22
2023-03-29T15:16:05.924Z,7.05
2023-03-29T15:18:40.797Z,7.30
2023-03-29T15:21:11.541Z,8.13
2023-03-29T15:23:42.756Z,8.30
2023-03-29T15:26:15.952Z,8.13
2023-03-29T15:28:50.524Z,7.78
2023-03-29T15:31:23.628Z,11.60
2023-03-29T15:34:06.933Z,7.35
2023-03-29T15:36:42.614Z,6.25
2023-03-29T15:39:13.896Z,7.18
2023-03-29T15:41:42.599Z,6.70
2023-03-29T15:44:11.854Z,9.15
2023-03-29T15:46:40.388Z,8.18
2023-03-29T15:49:12.467Z,9.50
2023-03-29T15:51:41.878Z,17.48
2023-03-29T15:54:10.641Z,10.55
2023-03-29T15:56:45.682Z,8.05
2023-03-29T15:59:14.223Z,8.13
2023-03-29T16:01:43.045Z,8.70
2023-03-29T16:04:15.227Z,9.32
2023-03-29T16:06:44.544Z,10.45
2023-03-29T16:09:13.134Z,8.15
2023-03-29T16:11:42.845Z,9.27
2023-03-29T16:14:23.163Z,8.70
2023-03-29T16:16:52.176Z,8.25
2023-03-29T16:19:22.106Z,7.55
2023-03-29T16:21:50.994Z,8.05
2023-03-29T16:24:21.351Z,11.75
2023-03-29T16:26:55.170Z,8.38
2023-03-29T16:29:24.969Z,9.27
2023-03-29T16:31:54.009Z,10.40
2023-03-29T16:34:24.544Z,11.75
2023-03-29T16:36:55.083Z,10.90
2023-03-29T16:39:23.502Z,14.38
2023-03-29T16:41:51.890Z,11.10
2023-03-29T16:44:24.433Z,10.10
2023-03-29T16:46:54.454Z,8.98
2023-03-29T16:49:24.687Z,9.30
2023-03-29T16:51:53.217Z,8.70
2023-03-29T16:54:21.584Z,11.90
2023-03-29T16:56:50.069Z,9.60
2023-03-29T16:59:18.502Z,10.10
2023-03-29T17:01:47.065Z,12.65
2023-03-29T17:04:15.689Z,10.45
2023-03-29T17:06:45.702Z,10.70
2023-03-29T17:09:14.154Z,10.30
2023-03-29T17:11:42.648Z,14.20
2023-03-29T17:14:11.437Z,13.65
2023-03-29T17:16:39.895Z,11.77
2023-03-29T17:19:08.433Z,11.18
2023-03-29T17:21:36.873Z,11.32
2023-03-29T17:24:07.384Z,13.27
2023-03-29T17:26:36.048Z,12.75
2023-03-29T17:29:04.493Z,12.50
2023-03-29T17:31:34.923Z,15.55
2023-03-29T17:34:03.570Z,17.77
2023-03-29T17:36:33.874Z,13.63
2023-03-29T17:39:03.018Z,11.45
2023-03-29T17:41:32.955Z,18.10
2023-03-29T17:44:01.373Z,15.95
2023-03-29T17:46:30.322Z,17.85
2023-03-29T17:49:00.392Z,19.77
2023-03-29T17:51:28.956Z,15.57
2023-03-29T17:53:58.354Z,21.25
2023-03-29T17:56:27.572Z,15.80
2023-03-29T17:58:57.442Z,21.33
2023-03-29T18:01:26.044Z,14.52
2023-03-29T18:03:54.614Z,14.90
2023-03-29T18:06:23.033Z,16.50
2023-03-29T18:08:53.249Z,13.80
2023-03-29T18:11:24.850Z,13.43
2023-03-29T18:13:54.426Z,13.98
2023-03-29T18:16:24.577Z,13.70
2023-03-29T18:18:53.070Z,14.45
2023-03-29T18:21:22.126Z,16.08
2023-03-29T18:23:52.904Z,22.83
2023-03-29T18:26:23.592Z,17.52
2023-03-29T18:28:52.556Z,16.48
2023-03-29T18:31:23.612Z,18.25
2023-03-29T18:33:53.353Z,16.77
2023-03-29T18:36:25.359Z,13.20
2023-03-29T18:38:55.926Z,14.45
2023-03-29T18:41:25.036Z,15.75
2023-03-29T18:43:57.551Z,13.52
2023-03-29T18:46:31.263Z,14.57
2023-03-29T18:49:03.869Z,14.73
2023-03-29T18:51:33.083Z,16.48
2023-03-29T18:54:04.278Z,16.30
2023-03-29T18:56:32.999Z,16.40
2023-03-29T18:59:05.208Z,14.48
2023-03-29T19:01:35.197Z,18.27
2023-03-29T19:04:03.768Z,18.08
2023-03-29T19:06:32.964Z,26.70
2023-03-29T19:09:04.318Z,64.25
2023-03-29T19:11:33.460Z,17.70
2023-03-29T19:14:02.490Z,17.90
2023-03-29T19:16:31.041Z,17.10
2023-03-29T19:19:02.492Z,17.85
2023-03-29T19:21:33.125Z,19.33
2023-03-29T19:24:05.110Z,13.98
2023-03-29T19:26:34.420Z,17.83
2023-03-29T19:29:03.154Z,16.80
2023-03-29T19:31:34.237Z,15.60
2023-03-29T19:34:07.147Z,16.48
2023-03-29T19:36:36.045Z,15.23
2023-03-29T19:39:05.162Z,14.50
2023-03-29T19:41:34.211Z,18.25
2023-03-29T19:44:02.721Z,16.30
2023-03-29T19:46:31.286Z,18.95
2023-03-29T19:49:00.641Z,13.23
2023-03-29T19:51:30.959Z,19.13
2023-03-29T19:53:59.737Z,18.23
2023-03-29T19:56:28.543Z,15.70
2023-03-29T19:58:57.003Z,16.60
2023-03-29T20:01:27.297Z,18.20
2023-03-29T20:03:55.977Z,17.98
2023-03-29T20:06:24.760Z,16.13
2023-03-29T20:08:56.613Z,17.38
2023-03-29T20:11:25.136Z,16.75
2023-03-29T20:13:53.685Z,17.33
2023-03-29T20:16:24.497Z,15.20
2023-03-29T20:18:54.131Z,18.70
2023-03-29T20:21:23.231Z,18.10
2023-03-29T20:23:51.899Z,16.67
2023-03-29T20:26:24.468Z,21.50
2023-03-29T20:28:53.271Z,17.13
2023-03-29T20:31:22.608Z,18.00
2023-03-29T20:33:53.689Z,16.48
2023-03-29T20:36:23.391Z,17.60
2023-03-29T20:38:56.903Z,18.80
2023-03-29T20:41:30.371Z,16.85
2023-03-29T20:44:03.292Z,26.50
2023-03-29T20:46:34.381Z,20.50
2023-03-29T20:49:04.664Z,19.00
2023-03-29T20:51:33.513Z,20.52
2023-03-29T20:54:05.660Z,19.27
2023-03-29T20:56:39.910Z,23.58
2023-03-29T20:59:10.752Z,18.08
2023-03-29T21:01:41.204Z,23.05
2023-03-29T21:04:11.125Z,18.90
2023-03-29T21:06:40.500Z,18.65
2023-03-29T21:09:09.085Z,19.13
2023-03-29T21:11:39.313Z,25.33
2023-03-29T21:14:07.677Z,19.33
2023-03-29T21:16:36.138Z,20.95
2023-03-29T21:19:04.636Z,22.02
2023-03-29T21:21:33.753Z,21.23
2023-03-29T21:24:02.339Z,18.20
2023-03-29T21:26:31.071Z,23.20
2023-03-29T21:29:00.943Z,19.83
2023-03-29T21:31:29.530Z,33.67
2023-03-29T21:33:58.154Z,30.85
2023-03-29T21:36:27.184Z,20.00
2023-03-29T21:38:55.669Z,19.30
2023-03-29T21:41:24.319Z,22.77
2023-03-29T21:43:52.705Z,20.70
2023-03-29T21:46:26.055Z,20.25
2023-03-29T21:48:54.706Z,20.58
2023-03-29T21:51:30.149Z,22.48
2023-03-29T21:54:18.223Z,20.23
2023-03-29T21:56:51.386Z,19.67
2023-03-29T21:59:20.946Z,21.50
2023-03-29T22:01:51.981Z,21.17
2023-03-29T22:04:33.590Z,22.90
2023-03-29T22:07:06.683Z,25.95
2023-03-29T22:09:37.603Z,22.13
2023-03-29T22:12:06.873Z,19.70
2023-03-29T22:14:38.092Z,18.10
2023-03-29T22:17:09.507Z,16.73
2023-03-29T22:19:43.624Z,18.65
2023-03-29T22:22:16.436Z,20.08
2023-03-29T22:24:44.976Z,20.27
2023-03-29T22:27:13.680Z,20.58
2023-03-29T22:29:42.193Z,19.23
2023-03-29T22:32:15.889Z,20.98
2023-03-29T22:34:44.535Z,20.58
2023-03-29T22:37:13.009Z,20.83
2023-03-29T22:39:41.569Z,23.83
2023-03-29T22:42:10.145Z,19.38
2023-03-29T22:44:38.568Z,21.17
2023-03-29T22:47:07.503Z,19.35
2023-03-29T22:49:38.058Z,17.55
2023-03-29T22:52:06.916Z,19.75
2023-03-29T22:54:35.508Z,19.58
2023-03-29T22:57:04.041Z,20.95
2023-03-29T22:59:32.541Z,20.63
2023-03-29T23:02:01.752Z,23.05
2023-03-29T23:04:30.259Z,23.40
2023-03-29T23:07:00.443Z,19.95
2023-03-29T23:09:28.987Z,23.15
2023-03-29T23:11:57.452Z,22.42
2023-03-29T23:14:25.983Z,21.58
2023-03-29T23:16:54.543Z,20.63
2023-03-29T23:19:23.138Z,19.00
2023-03-29T23:21:52.861Z,23.95
2023-03-29T23:24:22.979Z,19.98
2023-03-29T23:26:51.605Z,21.13
2023-03-29T23:29:20.311Z,20.40
2023-03-29T23:31:49.382Z,19.15
2023-03-29T23:34:19.906Z,19.52
2023-03-29T23:36:48.305Z,16.00
2023-03-29T23:39:16.754Z,15.93
2023-03-29T23:41:46.584Z,17.17
2023-03-29T23:44:15.050Z,15.38
2023-03-29T23:46:43.592Z,14.98
2023-03-29T23:49:12.379Z,18.95
2023-03-29T23:51:42.778Z,16.42
2023-03-29T23:54:12.093Z,14.80
2023-03-29T23:56:40.550Z,13.85
2023-03-29T23:59:10.825Z,16.00
